Culloden, Georgia
Current Conditions -  °F | °C
As of 6:15 PM on Wednesday 17 Dec 2014 (Local Time) from KOPN Reporting Station
Clear Clear  
Wind Chill: 50°   Ceiling: Unl
Heat Index: 50°   Visibility: 10mi
Dew Point: 41°   Wind: 6mph
Humidity: 71%   Direction: 310°NW
Pressure: 30.17"   Gusts: NA
Location:  32.86°N, 84.09°W
Report Text: KOPN 172315Z AUTO 31005KT 10SM CLR 10/05 A3017 RMK AO2
Loading
Personal Weather Stations






























Interactive Weather Map New forecast layout! Learn more

10-Day Weather Forecast

Advertisements
Track Severe Weather on mobile